createdAt,value
2023-04-09T00:00:37.034Z,87.01
2023-04-09T00:03:03.704Z,87.12
2023-04-09T00:05:30.578Z,87.06
2023-04-09T00:08:04.532Z,86.92
2023-04-09T00:10:31.122Z,86.86
2023-04-09T00:12:57.640Z,86.82
2023-04-09T00:15:30.744Z,86.72
2023-04-09T00:18:00.664Z,86.87
2023-04-09T00:20:27.138Z,86.82
2023-04-09T00:22:56.211Z,86.65
2023-04-09T00:25:22.544Z,86.97
2023-04-09T00:27:48.973Z,86.95
2023-04-09T00:30:15.790Z,86.98
2023-04-09T00:32:43.117Z,87.34
2023-04-09T00:35:09.721Z,87.36
2023-04-09T00:37:36.171Z,87.50
2023-04-09T00:40:03.200Z,87.72
2023-04-09T00:42:33.578Z,87.63
2023-04-09T00:45:00.695Z,87.94
2023-04-09T00:47:28.364Z,88.14
2023-04-09T00:49:55.930Z,88.40
2023-04-09T00:52:23.310Z,88.63
2023-04-09T00:54:55.047Z,88.63
2023-04-09T00:57:21.698Z,88.38
2023-04-09T00:59:50.514Z,88.27
2023-04-09T01:02:17.116Z,88.44
2023-04-09T01:04:44.374Z,88.71
2023-04-09T01:07:54.888Z,88.59
2023-04-09T01:10:46.700Z,88.68
2023-04-09T01:13:23.983Z,88.74
2023-04-09T01:15:59.324Z,88.71
2023-04-09T01:18:42.236Z,88.90
2023-04-09T01:21:17.996Z,88.92
2023-04-09T01:24:19.283Z,88.93
2023-04-09T01:26:57.266Z,89.16
2023-04-09T01:29:25.706Z,89.18
2023-04-09T01:31:54.066Z,89.25
2023-04-09T01:34:21.066Z,89.08
2023-04-09T01:36:52.909Z,89.33
2023-04-09T01:39:20.408Z,89.18
2023-04-09T01:41:47.406Z,89.19
2023-04-09T01:44:14.685Z,88.94
2023-04-09T01:46:41.792Z,89.23
2023-04-09T01:49:10.342Z,89.17
2023-04-09T01:51:39.119Z,89.19
2023-04-09T01:54:05.681Z,89.42
2023-04-09T01:56:45.763Z,89.43
2023-04-09T01:59:12.595Z,89.30
2023-04-09T02:01:46.573Z,89.03
2023-04-09T02:04:34.448Z,89.39
2023-04-09T02:07:15.290Z,89.12
2023-04-09T02:09:46.189Z,88.96
2023-04-09T02:12:18.967Z,88.65
2023-04-09T02:14:51.911Z,88.54
2023-04-09T02:17:19.366Z,88.55
2023-04-09T02:19:48.699Z,88.49
2023-04-09T02:22:16.401Z,88.42
2023-04-09T02:24:42.792Z,88.41
2023-04-09T02:27:09.306Z,88.22
2023-04-09T02:29:35.768Z,88.07
2023-04-09T02:32:02.220Z,88.29
2023-04-09T02:34:28.876Z,88.36
2023-04-09T02:36:55.585Z,88.40
2023-04-09T02:39:22.151Z,89.03
2023-04-09T02:41:48.591Z,89.47
2023-04-09T02:44:14.991Z,89.42
2023-04-09T02:46:49.363Z,89.60
2023-04-09T02:49:16.417Z,89.71
2023-04-09T02:51:42.810Z,89.93
2023-04-09T02:54:09.283Z,90.01
2023-04-09T02:56:35.939Z,90.10
2023-04-09T02:59:02.292Z,90.04
2023-04-09T03:01:28.725Z,90.14
2023-04-09T03:03:55.491Z,90.14
2023-04-09T03:06:22.036Z,89.98
2023-04-09T03:08:48.497Z,90.01
2023-04-09T03:11:15.807Z,90.00
2023-04-09T03:13:42.232Z,89.95
2023-04-09T03:16:10.188Z,89.99
2023-04-09T03:18:36.828Z,90.10
2023-04-09T03:21:10.307Z,90.18
2023-04-09T03:23:37.382Z,90.06
2023-04-09T03:26:05.860Z,90.23
2023-04-09T03:28:33.531Z,90.11
2023-04-09T03:31:00.354Z,90.26
2023-04-09T03:33:26.857Z,90.35
2023-04-09T03:35:53.348Z,90.40
2023-04-09T03:38:20.251Z,90.43
2023-04-09T03:40:46.825Z,90.75
2023-04-09T03:43:13.370Z,90.73
2023-04-09T03:45:39.948Z,90.85
2023-04-09T03:48:06.429Z,91.03
2023-04-09T03:50:40.887Z,90.93
2023-04-09T03:53:07.607Z,91.12
2023-04-09T03:55:34.223Z,91.01
2023-04-09T03:58:00.867Z,91.00
2023-04-09T04:00:27.368Z,90.98
2023-04-09T04:02:54.034Z,90.99
2023-04-09T04:05:24.098Z,90.99
2023-04-09T04:07:50.568Z,90.95
2023-04-09T04:10:17.044Z,91.18
2023-04-09T04:12:43.422Z,91.23
2023-04-09T04:15:10.151Z,91.35
2023-04-09T04:17:36.594Z,90.96
2023-04-09T04:20:04.016Z,91.28
2023-04-09T04:22:31.496Z,91.17
2023-04-09T04:24:57.874Z,91.14
2023-04-09T04:27:24.357Z,91.18
2023-04-09T04:29:50.914Z,91.07
2023-04-09T04:32:18.574Z,90.95
2023-04-09T04:34:49.983Z,90.73
2023-04-09T04:37:17.056Z,91.14
2023-04-09T04:39:46.029Z,90.95
2023-04-09T04:42:12.461Z,90.75
2023-04-09T04:44:38.925Z,90.98
2023-04-09T04:47:05.396Z,91.13
2023-04-09T04:49:31.914Z,91.36
2023-04-09T04:51:58.748Z,91.22
2023-04-09T04:54:25.354Z,91.30
2023-04-09T04:56:51.750Z,91.19
2023-04-09T04:59:21.145Z,91.02
2023-04-09T05:01:47.524Z,90.95
2023-04-09T05:04:13.914Z,90.88
2023-04-09T05:06:40.348Z,90.92
2023-04-09T05:09:06.782Z,90.89
2023-04-09T05:11:33.255Z,90.88
2023-04-09T05:14:00.344Z,90.77
2023-04-09T05:16:27.124Z,90.88
2023-04-09T05:18:53.985Z,90.87
2023-04-09T05:21:21.539Z,90.73
2023-04-09T05:23:47.944Z,90.30
2023-04-09T05:26:14.373Z,90.52
2023-04-09T05:28:41.355Z,90.44
2023-04-09T05:31:13.211Z,89.81
2023-04-09T05:33:40.201Z,89.76
2023-04-09T05:36:07.591Z,89.29
2023-04-09T05:38:34.863Z,89.28
2023-04-09T05:41:01.255Z,89.60
2023-04-09T05:43:27.720Z,89.49
2023-04-09T05:45:54.292Z,89.46
2023-04-09T05:48:21.033Z,89.49
2023-04-09T05:50:55.111Z,88.80
2023-04-09T05:53:22.858Z,88.07
2023-04-09T05:55:50.166Z,87.64
2023-04-09T05:58:21.164Z,87.06
2023-04-09T06:00:47.680Z,86.63
2023-04-09T06:03:14.148Z,86.01
2023-04-09T06:05:40.756Z,85.02
2023-04-09T06:08:10.465Z,84.26
2023-04-09T06:10:36.890Z,83.41
2023-04-09T06:13:06.153Z,82.94
2023-04-09T06:15:32.761Z,82.32
2023-04-09T06:17:59.573Z,81.26
2023-04-09T06:20:26.139Z,80.56
2023-04-09T06:22:52.589Z,79.90
2023-04-09T06:25:18.958Z,79.59
2023-04-09T06:27:45.445Z,79.21
2023-04-09T06:32:47.022Z,78.07
2023-04-09T06:35:20.038Z,77.62
2023-04-09T06:37:46.679Z,77.41
2023-04-09T06:40:14.921Z,76.80
2023-04-09T06:42:42.851Z,76.74
2023-04-09T06:45:10.025Z,76.07
2023-04-09T06:47:36.631Z,75.99
2023-04-09T06:50:03.562Z,75.69
2023-04-09T06:52:30.338Z,75.23
2023-04-09T06:54:56.803Z,74.47
2023-04-09T06:57:23.490Z,74.49
2023-04-09T06:59:49.892Z,74.52
2023-04-09T07:02:16.749Z,74.20
2023-04-09T07:04:43.294Z,73.58
2023-04-09T07:07:12.682Z,72.50
2023-04-09T07:09:41.606Z,72.19
2023-04-09T07:12:08.045Z,70.74
2023-04-09T07:14:34.464Z,70.58
2023-04-09T07:17:01.120Z,69.86
2023-04-09T07:19:27.567Z,69.94
2023-04-09T07:21:53.970Z,68.93
2023-04-09T07:24:20.649Z,68.41
2023-04-09T07:26:51.187Z,67.87
2023-04-09T07:29:20.738Z,66.02
2023-04-09T07:31:47.960Z,66.10
2023-04-09T07:34:14.791Z,66.31
2023-04-09T07:36:42.880Z,66.03
2023-04-09T07:39:10.844Z,64.55
2023-04-09T07:41:37.544Z,63.88
2023-04-09T07:44:04.328Z,61.97
2023-04-09T07:46:30.832Z,60.85
2023-04-09T07:48:57.223Z,61.87
2023-04-09T07:51:23.686Z,61.80
2023-04-09T07:53:50.385Z,62.11
2023-04-09T07:56:16.792Z,61.76
2023-04-09T07:58:43.512Z,61.69
2023-04-09T08:01:10.276Z,61.08
2023-04-09T08:03:37.141Z,59.24
2023-04-09T08:06:05.144Z,59.57
2023-04-09T08:08:31.637Z,57.69
2023-04-09T08:10:58.062Z,57.09
2023-04-09T08:13:25.436Z,55.74
2023-04-09T08:15:52.273Z,56.90
2023-04-09T08:18:18.720Z,58.50
2023-04-09T08:20:45.605Z,58.80
2023-04-09T08:23:12.520Z,58.05
2023-04-09T08:25:39.292Z,57.07
2023-04-09T08:28:08.487Z,54.32
2023-04-09T08:30:35.005Z,54.58
2023-04-09T08:33:02.104Z,55.55
2023-04-09T08:35:30.663Z,54.62
2023-04-09T08:37:57.633Z,54.19
2023-04-09T08:40:24.172Z,56.58
2023-04-09T08:42:57.890Z,53.82
2023-04-09T08:45:24.335Z,54.16
2023-04-09T08:47:52.010Z,52.86
2023-04-09T08:50:19.323Z,53.65
2023-04-09T08:52:48.270Z,51.94
2023-04-09T08:55:14.964Z,47.85
2023-04-09T08:57:41.953Z,48.05
2023-04-09T09:00:09.376Z,49.76
2023-04-09T09:02:36.147Z,48.47
2023-04-09T09:05:02.874Z,48.72
2023-04-09T09:07:30.679Z,45.35
2023-04-09T09:09:59.008Z,47.04
2023-04-09T09:12:42.955Z,50.93
2023-04-09T09:15:30.117Z,50.87
2023-04-09T09:17:58.626Z,48.94
2023-04-09T09:20:26.963Z,49.21
2023-04-09T09:22:55.732Z,48.88
2023-04-09T09:25:26.957Z,50.22
2023-04-09T09:27:55.407Z,47.82
2023-04-09T09:30:26.770Z,49.37
2023-04-09T09:32:54.671Z,47.62
2023-04-09T09:35:21.368Z,47.02
2023-04-09T09:37:48.085Z,43.65
2023-04-09T09:40:27.938Z,45.28
2023-04-09T09:42:56.296Z,44.32
2023-04-09T09:45:22.942Z,43.84
2023-04-09T09:47:49.849Z,44.58
2023-04-09T09:50:16.289Z,44.14
2023-04-09T09:52:46.066Z,43.46
2023-04-09T09:55:17.184Z,46.45
2023-04-09T09:57:47.233Z,47.80
2023-04-09T10:00:14.986Z,42.19
2023-04-09T10:02:48.095Z,43.63
2023-04-09T10:05:15.905Z,44.07
2023-04-09T10:07:43.650Z,43.27
2023-04-09T10:10:10.265Z,41.42
2023-04-09T10:12:37.321Z,40.88
2023-04-09T10:15:06.129Z,44.07
2023-04-09T10:17:32.850Z,38.76
2023-04-09T10:20:14.240Z,37.45
2023-04-09T10:22:45.598Z,39.62
2023-04-09T10:25:12.329Z,40.58
2023-04-09T10:27:38.738Z,41.68
2023-04-09T10:30:10.176Z,40.27
2023-04-09T10:32:36.829Z,37.09
2023-04-09T10:35:04.153Z,42.72
2023-04-09T10:37:30.906Z,42.36
2023-04-09T10:39:57.696Z,44.06
2023-04-09T10:42:30.015Z,44.01
2023-04-09T10:45:08.137Z,47.21
2023-04-09T10:47:36.573Z,47.93
2023-04-09T10:50:25.449Z,46.15
2023-04-09T10:52:54.112Z,45.15
2023-04-09T10:55:36.604Z,45.52
2023-04-09T10:58:05.478Z,44.73
2023-04-09T11:00:36.636Z,43.74
2023-04-09T11:03:04.246Z,41.41
2023-04-09T11:05:38.262Z,41.24
2023-04-09T11:08:09.882Z,44.19
2023-04-09T11:10:37.938Z,44.63
2023-04-09T11:13:05.373Z,41.97
2023-04-09T11:15:34.690Z,43.15
2023-04-09T11:18:02.158Z,42.27
2023-04-09T11:20:30.802Z,44.12
2023-04-09T11:22:59.067Z,43.37
2023-04-09T11:25:30.565Z,41.58
2023-04-09T11:27:57.089Z,40.95
2023-04-09T11:30:23.635Z,41.68
2023-04-09T11:32:51.176Z,43.75
2023-04-09T11:35:19.859Z,43.81
2023-04-09T11:37:46.945Z,42.76
2023-04-09T11:40:23.006Z,44.11
2023-04-09T11:42:51.012Z,44.09
2023-04-09T11:45:19.230Z,43.16
2023-04-09T11:47:46.650Z,42.03
2023-04-09T11:50:14.850Z,42.77
2023-04-09T11:52:44.637Z,43.13
2023-04-09T11:55:12.053Z,44.73
2023-04-09T11:57:44.721Z,45.06
2023-04-09T12:00:17.016Z,44.58
2023-04-09T12:02:49.043Z,44.04
2023-04-09T12:05:24.720Z,45.56
2023-04-09T12:07:56.353Z,44.08
2023-04-09T12:10:30.494Z,44.69
2023-04-09T12:13:02.606Z,44.35
2023-04-09T12:15:32.593Z,43.18
2023-04-09T12:17:59.708Z,43.76
2023-04-09T12:20:26.971Z,42.97
2023-04-09T12:22:53.478Z,44.39
2023-04-09T12:25:19.985Z,43.95
2023-04-09T12:27:47.706Z,44.08
2023-04-09T12:30:14.246Z,43.38
2023-04-09T12:32:42.874Z,44.72
2023-04-09T12:35:09.389Z,44.95
2023-04-09T12:37:35.820Z,44.61
2023-04-09T12:40:02.422Z,45.24
2023-04-09T12:42:28.963Z,43.82
2023-04-09T12:44:55.335Z,44.50
2023-04-09T12:47:21.806Z,43.74
2023-04-09T12:49:50.452Z,44.04
2023-04-09T12:52:18.608Z,44.57
2023-04-09T12:54:45.140Z,46.40
2023-04-09T12:57:11.631Z,46.39
2023-04-09T12:59:38.658Z,46.26
2023-04-09T13:02:05.424Z,44.84
2023-04-09T13:04:32.431Z,44.78
2023-04-09T13:06:59.066Z,43.04
2023-04-09T13:09:25.725Z,41.92
2023-04-09T13:11:52.416Z,42.99
2023-04-09T13:14:19.080Z,44.32
2023-04-09T13:16:45.641Z,45.42
2023-04-09T13:19:12.017Z,44.83
2023-04-09T13:21:38.367Z,42.89
2023-04-09T13:24:04.968Z,42.96
2023-04-09T13:26:31.859Z,44.51
2023-04-09T13:28:58.944Z,43.99
2023-04-09T13:31:25.494Z,44.39
2023-04-09T13:33:52.003Z,45.14
2023-04-09T13:36:18.415Z,45.42
2023-04-09T13:38:45.006Z,44.98
2023-04-09T13:41:11.514Z,45.05
2023-04-09T13:43:37.930Z,45.64
2023-04-09T13:46:04.928Z,45.01
2023-04-09T13:48:31.416Z,45.03
2023-04-09T13:50:58.012Z,44.06
2023-04-09T13:53:25.149Z,44.46
2023-04-09T13:55:51.649Z,46.68
2023-04-09T13:58:18.182Z,46.70
2023-04-09T14:00:44.826Z,47.04
2023-04-09T14:03:11.500Z,47.22
2023-04-09T14:05:37.962Z,47.71
2023-04-09T14:08:04.397Z,46.98
2023-04-09T14:10:30.985Z,45.87
2023-04-09T14:12:58.320Z,42.80
2023-04-09T14:15:24.867Z,44.07
2023-04-09T14:17:51.486Z,41.92
2023-04-09T14:20:19.994Z,40.21
2023-04-09T14:22:49.570Z,42.22
2023-04-09T14:25:16.698Z,42.07
2023-04-09T14:27:43.258Z,41.61
2023-04-09T14:30:10.691Z,42.75
2023-04-09T14:32:37.165Z,41.77
2023-04-09T14:35:03.878Z,42.90
2023-04-09T14:37:31.744Z,43.45
2023-04-09T14:39:58.180Z,44.34
2023-04-09T14:42:24.857Z,43.49
2023-04-09T14:44:51.395Z,41.74
2023-04-09T14:47:17.850Z,40.80
2023-04-09T14:49:44.296Z,40.37
2023-04-09T14:52:10.897Z,42.56
2023-04-09T14:54:37.875Z,42.92
2023-04-09T14:57:04.355Z,43.12
2023-04-09T14:59:31.045Z,42.86
2023-04-09T15:01:57.556Z,43.18
2023-04-09T15:04:24.416Z,42.96
2023-04-09T15:06:51.282Z,42.41
2023-04-09T15:09:17.848Z,41.56
2023-04-09T15:11:44.418Z,39.41
2023-04-09T15:14:10.767Z,40.42
2023-04-09T15:16:37.555Z,41.90
2023-04-09T15:19:04.256Z,40.24
2023-04-09T15:21:31.867Z,40.20
2023-04-09T15:23:59.039Z,41.04
2023-04-09T15:26:27.349Z,39.70
2023-04-09T15:29:02.298Z,40.43
2023-04-09T15:31:28.755Z,38.68
2023-04-09T15:33:55.248Z,40.54
2023-04-09T15:36:21.771Z,38.90
2023-04-09T15:38:48.539Z,37.99
2023-04-09T15:41:17.011Z,38.80
2023-04-09T15:43:43.464Z,37.89
2023-04-09T15:46:10.747Z,37.62
2023-04-09T15:48:38.697Z,38.51
2023-04-09T15:51:05.344Z,40.33
2023-04-09T15:53:31.980Z,41.05
2023-04-09T15:55:58.872Z,39.71
2023-04-09T15:58:25.760Z,38.38
2023-04-09T16:00:52.308Z,38.81
2023-04-09T16:03:19.368Z,39.65
2023-04-09T16:05:47.507Z,39.01
2023-04-09T16:08:14.557Z,39.13
2023-04-09T16:10:40.952Z,40.31
2023-04-09T16:13:07.389Z,39.08
2023-04-09T16:15:37.244Z,39.05
2023-04-09T16:18:03.817Z,39.99
2023-04-09T16:20:31.248Z,39.66
2023-04-09T16:22:57.654Z,39.09
2023-04-09T16:25:25.386Z,39.92
2023-04-09T16:27:52.098Z,38.67
2023-04-09T16:30:18.533Z,38.41
2023-04-09T16:32:45.019Z,40.62
2023-04-09T16:35:13.848Z,40.40
2023-04-09T16:37:40.500Z,40.67
2023-04-09T16:40:08.147Z,40.67
2023-04-09T16:42:34.628Z,40.77
2023-04-09T16:45:04.163Z,40.51
2023-04-09T16:47:31.772Z,40.44
2023-04-09T16:49:58.294Z,41.23
2023-04-09T16:52:24.843Z,40.56
2023-04-09T16:54:51.322Z,40.78
2023-04-09T16:57:17.769Z,42.01
2023-04-09T16:59:45.580Z,41.88
2023-04-09T17:02:12.070Z,41.93
2023-04-09T17:04:38.465Z,41.47
2023-04-09T17:07:05.153Z,41.19
2023-04-09T17:09:31.885Z,42.25
2023-04-09T17:11:58.375Z,42.41
2023-04-09T17:14:24.872Z,41.85
2023-04-09T17:16:53.692Z,42.13
2023-04-09T17:19:20.155Z,43.36
2023-04-09T17:21:46.653Z,43.45
2023-04-09T17:24:13.218Z,43.66
2023-04-09T17:26:39.735Z,43.80
2023-04-09T17:29:06.249Z,44.12
2023-04-09T17:31:32.985Z,44.49
2023-04-09T17:33:59.547Z,44.67
2023-04-09T17:36:26.440Z,44.36
2023-04-09T17:38:53.591Z,44.58
2023-04-09T17:41:20.148Z,44.94
2023-04-09T17:43:46.616Z,44.82
2023-04-09T17:46:13.125Z,45.02
2023-04-09T17:48:40.901Z,45.38
2023-04-09T17:51:07.439Z,45.55
2023-04-09T17:53:38.994Z,45.82
2023-04-09T17:57:35.942Z,46.20
2023-04-09T18:00:05.427Z,46.52
2023-04-09T18:02:32.616Z,46.67
2023-04-09T18:05:00.493Z,46.73
2023-04-09T18:07:30.352Z,46.66
2023-04-09T18:09:57.020Z,47.53
2023-04-09T18:12:23.765Z,48.19
2023-04-09T18:14:50.505Z,48.04
2023-04-09T18:17:17.426Z,48.29
2023-04-09T18:19:44.049Z,48.32
2023-04-09T18:22:10.515Z,48.40
2023-04-09T18:24:36.902Z,48.64
2023-04-09T18:27:03.470Z,49.17
2023-04-09T18:29:31.334Z,49.98
2023-04-09T18:31:58.514Z,50.07
2023-04-09T18:34:25.757Z,50.37
2023-04-09T18:36:53.858Z,50.74
2023-04-09T18:39:22.625Z,51.00
2023-04-09T18:41:49.313Z,51.33
2023-04-09T18:44:16.854Z,51.42
2023-04-09T18:46:43.372Z,51.53
2023-04-09T18:49:09.952Z,51.43
2023-04-09T18:51:36.602Z,52.26
2023-04-09T18:54:03.035Z,51.66
2023-04-09T18:56:29.396Z,52.22
2023-04-09T18:58:55.957Z,52.58
2023-04-09T19:01:23.242Z,52.90
2023-04-09T19:03:49.880Z,53.21
2023-04-09T19:06:19.284Z,53.56
2023-04-09T19:08:47.178Z,53.59
2023-04-09T19:11:14.398Z,53.52
2023-04-09T19:13:40.945Z,53.93
2023-04-09T19:16:10.857Z,54.24
2023-04-09T19:18:38.047Z,54.01
2023-04-09T19:21:07.796Z,54.42
2023-04-09T19:23:35.580Z,54.67
2023-04-09T19:26:03.132Z,54.88
2023-04-09T19:28:29.725Z,55.13
2023-04-09T19:30:56.433Z,55.00
2023-04-09T19:33:24.501Z,55.01
2023-04-09T19:35:52.406Z,55.26
2023-04-09T19:38:19.361Z,55.27
2023-04-09T19:40:46.350Z,55.13
2023-04-09T19:43:13.688Z,55.41
2023-04-09T19:45:42.320Z,55.41
2023-04-09T19:48:09.086Z,55.59
2023-04-09T19:50:40.821Z,56.18
2023-04-09T19:53:07.413Z,55.96
2023-04-09T19:55:34.792Z,56.26
2023-04-09T19:58:01.860Z,56.20
2023-04-09T20:00:28.621Z,56.60
2023-04-09T20:02:55.597Z,57.32
2023-04-09T20:05:22.336Z,57.43
2023-04-09T20:07:49.373Z,57.34
2023-04-09T20:10:16.308Z,57.18
2023-04-09T20:12:46.905Z,57.34
2023-04-09T20:15:14.797Z,57.83
2023-04-09T20:17:44.665Z,58.03
2023-04-09T20:20:12.073Z,58.04
2023-04-09T20:22:46.721Z,58.62
2023-04-09T20:25:16.609Z,58.54
2023-04-09T20:27:43.277Z,58.38
2023-04-09T20:30:10.320Z,58.67
2023-04-09T20:32:37.623Z,59.22
2023-04-09T20:35:05.369Z,59.01
2023-04-09T20:37:31.795Z,59.37
2023-04-09T20:39:59.359Z,59.71
2023-04-09T20:42:26.173Z,59.57
2023-04-09T20:44:52.767Z,59.35
2023-04-09T20:47:20.826Z,59.44
2023-04-09T20:49:51.170Z,59.35
2023-04-09T20:52:17.764Z,59.80
2023-04-09T20:54:46.219Z,59.74
2023-04-09T20:57:13.976Z,59.97
2023-04-09T20:59:40.672Z,60.54
2023-04-09T21:02:08.428Z,60.30
2023-04-09T21:04:35.036Z,60.22
2023-04-09T21:07:01.520Z,60.48
2023-04-09T21:09:28.970Z,60.46
2023-04-09T21:11:55.588Z,60.12
2023-04-09T21:14:22.276Z,60.55
2023-04-09T21:16:49.175Z,61.25
2023-04-09T21:19:15.846Z,61.12
2023-04-09T21:21:42.290Z,60.55
2023-04-09T21:24:08.854Z,60.13
2023-04-09T21:26:49.269Z,60.78
2023-04-09T21:29:17.379Z,60.79
2023-04-09T21:31:43.840Z,60.98
2023-04-09T21:34:10.663Z,61.06
2023-04-09T21:36:39.169Z,61.10
2023-04-09T21:39:06.845Z,62.17
2023-04-09T21:41:33.237Z,62.34
2023-04-09T21:44:03.597Z,62.45
2023-04-09T21:46:30.085Z,62.32
2023-04-09T21:48:56.875Z,62.72
2023-04-09T21:51:23.271Z,63.16
2023-04-09T21:53:49.837Z,63.17
2023-04-09T21:56:16.181Z,63.56
2023-04-09T21:58:42.612Z,63.69
2023-04-09T22:01:15.683Z,62.77
2023-04-09T22:03:45.711Z,63.11
2023-04-09T22:06:12.255Z,63.88
2023-04-09T22:08:52.826Z,64.18
2023-04-09T22:11:28.109Z,64.25
2023-04-09T22:13:57.876Z,64.68
2023-04-09T22:16:25.460Z,64.31
2023-04-09T22:18:53.368Z,64.76
2023-04-09T22:21:20.075Z,64.71
2023-04-09T22:23:46.522Z,64.77
2023-04-09T22:26:13.119Z,64.69
2023-04-09T22:28:39.577Z,65.73
2023-04-09T22:31:06.495Z,66.05
2023-04-09T22:33:33.020Z,64.98
2023-04-09T22:36:00.054Z,65.00
2023-04-09T22:38:26.645Z,65.25
2023-04-09T22:40:53.228Z,65.93
2023-04-09T22:43:19.800Z,66.07
2023-04-09T22:45:57.061Z,66.90
2023-04-09T22:48:24.623Z,66.31
2023-04-09T22:50:51.314Z,65.89
2023-04-09T22:53:19.350Z,65.49
2023-04-09T22:55:54.314Z,65.50
2023-04-09T22:58:21.131Z,65.66
2023-04-09T23:00:48.172Z,65.80
2023-04-09T23:03:15.041Z,66.08
2023-04-09T23:05:42.033Z,66.39
2023-04-09T23:08:08.959Z,66.53
2023-04-09T23:10:35.731Z,66.55
2023-04-09T23:13:02.352Z,66.91
2023-04-09T23:15:28.897Z,68.45
2023-04-09T23:17:55.712Z,69.22
2023-04-09T23:20:22.667Z,69.68
2023-04-09T23:22:49.699Z,70.14
2023-04-09T23:25:16.751Z,70.53
2023-04-09T23:27:43.458Z,70.35
2023-04-09T23:30:10.554Z,70.59
2023-04-09T23:32:37.241Z,70.97
2023-04-09T23:35:04.194Z,71.00
2023-04-09T23:37:31.227Z,71.24
2023-04-09T23:39:58.154Z,71.17
2023-04-09T23:42:26.099Z,70.86
2023-04-09T23:44:53.567Z,70.64
2023-04-09T23:47:19.960Z,70.96
2023-04-09T23:49:46.730Z,71.60
2023-04-09T23:52:13.587Z,71.41
2023-04-09T23:54:48.787Z,71.08
